MUVR

Juan Gualberto Gomez Airport

Airport
ICAO code
MUVR
IATA Code
VRA
Summary
ICAO Region
CARSAM
ICAO Territory
Location

Matanzas, Matanzas

Serving
Varadero
Elevation
210 ft
Coordinates
23° 2' 4" N , 81° 26' 7" W
KCC
Airport WX
Tropical Revolving Storm
Metar
Observation
MUVR 091850Z 05011KT 9000 SCT020 27/19 Q1017
Station
Varadero, Matanzas
Date/Time
2022-12-09 18:50:00
Wind direction
50°
Wind speed
11 kts
Lowest cloud amount
scattered clouds
Temperature
27°C
Dew point
19°C
Humidity
61%
QNH
1017 hPa
Weather condition
n/a

Juan Gualberto Gómez Airport is an international airport serving Varadero, Cuba and the province of Matanzas. The airport is located closer to the town of Matanzas than to Varadero. The closest airport to Varadero is Santa Marta Airport. Juan Gualberto Gómez Airport is the second busiest airport in Cuba after José Martí International Airport in Havana.

Climatology

Tropical Savanna climate (Köppen climate classification Aw)

Runways

Designator Length Width Surface Rops
6/24 3502 45 ASP Yes/Yes

Airport map

Aerial View

Airport accidents

SKYbrary Partners:

Safety knowledge contributed by: